Time;durP1;ratioP1;P1;durP2;ratioP2;P2;SDS_P1;SDS_P2;PMS_P1;PMS_P2;Temp;Humidity;BMP_temperature;BMP_pressure;BME280_temperature;BME280_humidity;BME280_pressure;Samples;Min_cycle;Max_cycle;Signal;HPM_P1;HPM_P2
2021/12/15 00:00:53;;;;;;;75.63;41.97;;;10.50;91.60;;;;;;4972184;28;20027;-69
2021/12/15 00:03:19;;;;;;;73.50;40.33;;;10.50;91.60;;;;;;4971239;28;20038;-69
2021/12/15 00:05:47;;;;;;;67.95;38.10;;;10.50;91.60;;;;;;4986530;28;20397;-69
2021/12/15 00:08:13;;;;;;;69.53;40.10;;;10.50;91.60;;;;;;4992065;28;20426;-70
2021/12/15 00:10:41;;;;;;;66.63;38.53;;;10.50;91.60;;;;;;4992176;28;20120;-69
2021/12/15 00:13:07;;;;;;;74.43;43.05;;;10.50;91.60;;;;;;4991762;28;20050;-69
2021/12/15 00:15:34;;;;;;;70.60;41.70;;;10.50;91.50;;;;;;4990888;28;20062;-69
2021/12/15 00:18:00;;;;;;;76.32;43.30;;;10.50;91.50;;;;;;4991730;28;20426;-70
2021/12/15 00:20:27;;;;;;;73.20;42.22;;;10.50;91.40;;;;;;4991750;28;20011;-70
2021/12/15 00:22:53;;;;;;;67.10;39.00;;;10.50;91.50;;;;;;4991372;28;20034;-71
2021/12/15 00:25:22;;;;;;;69.80;40.20;;;10.50;91.50;;;;;;5001673;28;20504;-70
2021/12/15 00:27:47;;;;;;;67.18;38.80;;;10.50;91.50;;;;;;4993143;28;20448;-70
2021/12/15 00:30:13;;;;;;;69.57;39.45;;;10.50;91.50;;;;;;4990577;28;20030;-70
2021/12/15 00:32:39;;;;;;;64.53;37.83;;;10.40;91.50;;;;;;4991563;28;20513;-70
2021/12/15 00:35:07;;;;;;;65.88;41.33;;;10.50;91.50;;;;;;4991317;28;20485;-70
2021/12/15 00:37:33;;;;;;;63.67;37.92;;;10.50;91.50;;;;;;4991766;28;20034;-70
2021/12/15 00:39:59;;;;;;;67.95;41.25;;;10.40;91.50;;;;;;4991096;28;20030;-70
2021/12/15 00:42:25;;;;;;;67.65;39.05;;;10.40;91.40;;;;;;4989925;28;20037;-71
2021/12/15 00:44:51;;;;;;;83.38;42.15;;;10.40;91.50;;;;;;4990144;28;20386;-71
2021/12/15 00:47:17;;;;;;;72.55;40.72;;;10.40;91.50;;;;;;4989950;28;20040;-71
2021/12/15 00:49:42;;;;;;;70.78;41.30;;;10.40;91.50;;;;;;4975319;28;20100;-71
2021/12/15 00:52:08;;;;;;;64.53;37.97;;;10.40;91.50;;;;;;4971736;28;20054;-70
2021/12/15 00:54:36;;;;;;;64.45;39.65;;;10.40;91.50;;;;;;4971448;28;20034;-69
2021/12/15 00:57:04;;;;;;;77.47;41.00;;;10.40;91.50;;;;;;4987992;28;20126;-69
2021/12/15 00:59:30;;;;;;;75.55;43.25;;;10.40;91.50;;;;;;4991218;28;20038;-69
2021/12/15 01:01:56;;;;;;;68.97;39.20;;;10.40;91.50;;;;;;4990491;28;20026;-69
2021/12/15 01:04:24;;;;;;;76.35;41.47;;;10.40;91.50;;;;;;4990692;28;20085;-66
2021/12/15 01:06:53;;;;;;;71.40;40.28;;;10.40;91.50;;;;;;4989491;28;20060;-66
2021/12/15 01:09:46;;;;;;;68.00;40.53;;;10.40;91.50;;;;;;4990839;28;20042;-65
2021/12/15 01:20:27;;;;;;;63.20;37.60;;;10.40;91.50;;;;;;4991065;28;20052;-66
2021/12/15 01:22:56;;;;;;;75.13;43.42;;;10.40;91.50;;;;;;4989413;28;20026;-66
2021/12/15 01:25:30;;;;;;;72.53;40.97;;;10.40;91.40;;;;;;4989835;28;20030;-66
2021/12/15 01:27:56;;;;;;;68.47;40.35;;;10.40;91.50;;;;;;4990594;28;20026;-69
2021/12/15 01:30:27;;;;;;;73.75;41.55;;;10.40;91.50;;;;;;4999182;28;20035;-70
2021/12/15 01:32:54;;;;;;;78.15;41.97;;;10.40;91.50;;;;;;4990623;28;20081;-69
2021/12/15 01:35:21;;;;;;;68.20;39.95;;;10.40;91.50;;;;;;4989829;28;20030;-69
2021/12/15 01:37:47;;;;;;;65.55;38.55;;;10.40;91.50;;;;;;4989105;28;20029;-69
2021/12/15 01:40:23;;;;;;;70.72;41.33;;;10.40;91.50;;;;;;4990336;28;20031;-70
2021/12/15 01:42:49;;;;;;;68.20;40.10;;;10.40;91.50;;;;;;4990009;28;20025;-69
2021/12/15 01:48:07;;;;;;;64.68;40.15;;;10.40;91.50;;;;;;4988406;28;20097;-69
2021/12/15 01:50:33;;;;;;;73.28;42.80;;;10.50;91.50;;;;;;4970736;28;20026;-69
2021/12/15 01:52:59;;;;;;;73.88;41.60;;;10.50;91.50;;;;;;4970613;28;20039;-70
2021/12/15 01:55:26;;;;;;;71.10;40.45;;;10.50;91.40;;;;;;4970077;28;20422;-70
2021/12/15 01:57:53;;;;;;;70.38;39.90;;;10.50;91.40;;;;;;4970391;28;20023;-70
2021/12/15 02:00:24;;;;;;;72.13;41.45;;;10.50;91.40;;;;;;4970290;28;20549;-71
2021/12/15 02:02:51;;;;;;;65.60;40.35;;;10.50;91.40;;;;;;4970258;28;20034;-71
2021/12/15 02:05:17;;;;;;;72.35;41.15;;;10.50;91.40;;;;;;4984230;28;20121;-71
2021/12/15 02:07:47;;;;;;;86.82;45.63;;;10.50;91.40;;;;;;4970512;28;20452;-71
2021/12/15 02:10:13;;;;;;;70.97;42.63;;;10.50;91.40;;;;;;4984876;28;20090;-71
2021/12/15 02:12:41;;;;;;;71.10;41.35;;;10.50;91.40;;;;;;4970341;28;20121;-71
2021/12/15 02:15:21;;;;;;;72.28;40.92;;;10.50;91.40;;;;;;4975151;28;20041;-67
2021/12/15 02:17:47;;;;;;;71.38;41.45;;;10.50;91.40;;;;;;4989574;28;20053;-70
2021/12/15 02:20:17;;;;;;;71.88;41.03;;;10.40;91.40;;;;;;4989465;28;20097;-70
2021/12/15 02:22:44;;;;;;;79.28;42.67;;;10.50;91.40;;;;;;4989060;28;20161;-70
2021/12/15 02:25:12;;;;;;;70.15;40.42;;;10.40;91.40;;;;;;4989917;28;20062;-70
2021/12/15 02:27:38;;;;;;;82.80;43.90;;;10.50;91.40;;;;;;4989932;28;20026;-70
2021/12/15 02:30:42;;;;;;;75.90;42.95;;;10.50;91.40;;;;;;4989546;28;20065;-71
2021/12/15 02:38:40;;;;;;;70.40;40.78;;;10.40;91.40;;;;;;4983562;28;20029;-70
2021/12/15 02:41:12;;;;;;;66.90;39.00;;;10.40;91.40;;;;;;4989451;28;20485;-70
2021/12/15 02:43:38;;;;;;;;;;;10.40;91.40;;;;;;4988819;28;20027;-70
2021/12/15 02:46:05;;;;;;;68.72;39.40;;;10.40;91.30;;;;;;4988489;28;19932;-70
2021/12/15 02:48:32;;;;;;;73.10;41.38;;;10.40;91.40;;;;;;4989359;28;20034;-70
2021/12/15 02:50:58;;;;;;;76.22;42.53;;;10.40;91.40;;;;;;4989181;28;20061;-70
2021/12/15 02:53:24;;;;;;;64.05;39.65;;;10.40;91.40;;;;;;4989301;28;20442;-70
2021/12/15 02:55:50;;;;;;;63.40;38.53;;;10.40;91.40;;;;;;4988663;28;20038;-70
2021/12/15 02:58:18;;;;;;;67.20;38.72;;;10.40;91.40;;;;;;4989390;28;20030;-70
2021/12/15 03:00:59;;;;;;;63.45;38.25;;;10.40;91.40;;;;;;4989080;28;20026;-70
2021/12/15 03:06:06;;;;;;;70.38;41.63;;;10.40;91.40;;;;;;4988912;28;20165;-70
2021/12/15 03:15:20;;;;;;;68.20;39.80;;;10.40;91.40;;;;;;4988984;28;20220;-69
2021/12/15 03:16:45;;;;;;;70.38;40.28;;;10.40;91.30;;;;;;4988620;28;20043;-70
2021/12/15 03:19:11;;;;;;;68.25;39.33;;;10.40;91.40;;;;;;4988133;28;20129;-70
2021/12/15 03:21:37;;;;;;;66.13;39.60;;;10.40;91.30;;;;;;4991233;28;20026;-71
2021/12/15 03:24:15;;;;;;;63.95;36.83;;;10.40;91.40;;;;;;4992295;28;20026;-71
2021/12/15 03:26:51;;;;;;;67.78;39.22;;;10.40;91.40;;;;;;4992815;28;20029;-70
2021/12/15 03:37:31;;;;;;;68.15;37.65;;;10.40;91.40;;;;;;4992724;28;20038;-69
2021/12/15 03:40:00;;;;;;;75.03;41.33;;;10.40;91.40;;;;;;4995768;28;20385;-69
2021/12/15 03:42:30;;;;;;;68.10;38.90;;;10.40;91.40;;;;;;5000751;28;20034;-69
2021/12/15 03:44:57;;;;;;;68.40;39.63;;;10.40;91.30;;;;;;4991449;28;20444;-70
2021/12/15 03:47:28;;;;;;;58.50;35.22;;;10.40;91.30;;;;;;4991725;28;20030;-69
2021/12/15 03:49:55;;;;;;;69.45;39.42;;;10.40;91.40;;;;;;4974834;28;20470;-69
2021/12/15 03:52:21;;;;;;;70.25;39.70;;;10.40;91.30;;;;;;4972804;28;20027;-70
2021/12/15 03:54:48;;;;;;;68.07;37.45;;;10.40;91.40;;;;;;4981189;28;20093;-70
2021/12/15 03:57:15;;;;;;;68.90;39.85;;;10.40;91.40;;;;;;4991916;28;20026;-70
2021/12/15 03:59:43;;;;;;;62.00;37.10;;;10.40;91.30;;;;;;4992253;28;20050;-69
2021/12/15 04:02:12;;;;;;;63.47;38.50;;;10.40;91.30;;;;;;4991610;28;20023;-70
2021/12/15 04:04:39;;;;;;;66.32;38.10;;;10.40;91.30;;;;;;4991810;28;20035;-70
2021/12/15 04:07:06;;;;;;;74.97;39.63;;;10.40;91.40;;;;;;4974289;28;20591;-70
2021/12/15 04:09:32;;;;;;;75.45;39.72;;;10.40;91.30;;;;;;4991822;28;20038;-70
2021/12/15 04:11:59;;;;;;;62.45;36.20;;;10.40;91.30;;;;;;4991525;28;20121;-70
2021/12/15 04:14:31;;;;;;;69.68;38.90;;;10.40;91.30;;;;;;4991162;28;20033;-70
2021/12/15 04:17:07;;;;;;;67.97;38.00;;;10.40;91.30;;;;;;4991391;28;20033;-70
2021/12/15 04:19:36;;;;;;;70.35;39.58;;;10.40;91.30;;;;;;4990262;28;20022;-70
2021/12/15 04:22:04;;;;;;;65.15;37.08;;;10.40;91.30;;;;;;4990355;28;20030;-70
2021/12/15 04:24:30;;;;;;;70.30;39.88;;;10.40;91.30;;;;;;4990106;28;20034;-69
2021/12/15 04:26:58;;;;;;;67.32;37.90;;;10.40;91.30;;;;;;4991187;28;20103;-69
2021/12/15 04:29:24;;;;;;;65.00;36.33;;;10.40;91.30;;;;;;4991405;28;20077;-69
2021/12/15 04:32:07;;;;;;;63.85;36.88;;;10.40;91.30;;;;;;4990400;28;20382;-70
2021/12/15 04:34:32;;;;;;;65.43;38.05;;;10.40;91.30;;;;;;4991038;28;20480;-70
2021/12/15 04:36:58;;;;;;;61.65;36.72;;;10.40;91.30;;;;;;4989649;28;20121;-70
2021/12/15 04:39:26;;;;;;;69.97;39.33;;;10.40;91.30;;;;;;4991075;28;20026;-67
2021/12/15 04:41:54;;;;;;;67.53;38.78;;;10.40;91.30;;;;;;4991183;28;20455;-66
2021/12/15 04:44:23;;;;;;;69.65;37.78;;;10.40;91.20;;;;;;4990621;28;20038;-66
2021/12/15 04:46:59;;;;;;;65.80;36.10;;;10.40;91.30;;;;;;4997958;28;20037;-67
2021/12/15 04:49:28;;;;;;;65.15;37.67;;;10.40;91.30;;;;;;4977747;28;20078;-67
2021/12/15 04:51:53;;;;;;;64.38;37.10;;;10.40;91.30;;;;;;4971304;28;20034;-67
2021/12/15 04:54:20;;;;;;;66.25;37.38;;;10.40;91.30;;;;;;4982708;28;20382;-67
2021/12/15 04:56:46;;;;;;;68.18;38.35;;;10.40;91.30;;;;;;4990944;28;20054;-67
2021/12/15 04:59:14;;;;;;;59.35;35.60;;;10.40;91.20;;;;;;4990869;28;20101;-66
2021/12/15 05:01:40;;;;;;;64.30;38.38;;;10.40;91.20;;;;;;4990937;28;20033;-67
2021/12/15 05:04:06;;;;;;;66.50;38.15;;;10.50;91.20;;;;;;4990786;28;20049;-66
2021/12/15 05:06:32;;;;;;;62.78;36.75;;;10.50;91.20;;;;;;4990579;28;20485;-66
2021/12/15 05:08:59;;;;;;;71.10;38.47;;;10.40;91.20;;;;;;4988073;28;20023;-66
2021/12/15 05:11:24;;;;;;;66.43;39.22;;;10.40;91.20;;;;;;4990308;28;20034;-66
2021/12/15 05:13:50;;;;;;;66.30;37.10;;;10.40;91.20;;;;;;4971754;28;20537;-66
2021/12/15 05:16:16;;;;;;;69.80;38.45;;;10.40;91.20;;;;;;4989088;28;20514;-67
2021/12/15 05:18:43;;;;;;;70.40;39.30;;;10.40;91.30;;;;;;4990874;28;20030;-66
2021/12/15 05:21:10;;;;;;;63.30;36.33;;;10.40;91.30;;;;;;4989295;28;20109;-66
2021/12/15 05:23:37;;;;;;;70.15;39.00;;;10.40;91.30;;;;;;4982500;28;20018;-69
2021/12/15 05:26:04;;;;;;;65.75;38.85;;;10.40;91.30;;;;;;4982502;28;20038;-69
2021/12/15 05:28:30;;;;;;;63.88;36.00;;;10.40;91.30;;;;;;4988145;28;20061;-69
2021/12/15 05:30:57;;;;;;;61.40;35.55;;;10.40;91.30;;;;;;4989806;28;20026;-69
2021/12/15 05:33:24;;;;;;;64.57;36.38;;;10.40;91.30;;;;;;4988981;28;20034;-70
2021/12/15 05:35:50;;;;;;;65.13;35.47;;;10.40;91.30;;;;;;4988996;28;20408;-69
2021/12/15 05:38:17;;;;;;;64.50;37.10;;;10.40;91.30;;;;;;4989120;28;20046;-70
2021/12/15 05:40:44;;;;;;;65.63;37.90;;;10.50;91.30;;;;;;4990288;28;20050;-70
2021/12/15 05:43:10;;;;;;;74.82;40.78;;;10.40;91.30;;;;;;4989682;28;20034;-70
2021/12/15 05:45:39;;;;;;;64.82;37.75;;;10.40;91.30;;;;;;4988813;28;20484;-70
2021/12/15 05:48:07;;;;;;;68.53;38.53;;;10.50;91.30;;;;;;4987441;28;20040;-69
2021/12/15 05:50:34;;;;;;;64.85;37.85;;;10.40;91.30;;;;;;4989148;28;20178;-71
2021/12/15 05:53:01;;;;;;;62.88;37.97;;;10.50;91.30;;;;;;4994535;28;20512;-71
2021/12/15 05:55:28;;;;;;;65.50;38.40;;;10.40;91.20;;;;;;4989730;28;20409;-71
2021/12/15 05:57:53;;;;;;;62.67;37.30;;;10.50;91.30;;;;;;4989827;28;20037;-67
2021/12/15 06:00:24;;;;;;;66.55;37.40;;;10.50;91.30;;;;;;4972469;28;20031;-67
2021/12/15 06:02:51;;;;;;;80.38;43.22;;;10.50;91.30;;;;;;4988437;28;20026;-67
2021/12/15 06:05:17;;;;;;;63.05;37.40;;;10.50;91.20;;;;;;4989658;28;20038;-71
2021/12/15 06:07:43;;;;;;;71.75;39.47;;;10.40;91.30;;;;;;4986462;28;20033;-71
2021/12/15 06:10:15;;;;;;;66.75;38.45;;;10.50;91.30;;;;;;4987386;28;20031;-70
2021/12/15 06:12:42;;;;;;;65.57;37.83;;;10.50;91.30;;;;;;4989870;28;20076;-69
2021/12/15 06:15:09;;;;;;;65.80;38.03;;;10.50;91.30;;;;;;4989463;28;20117;-69
2021/12/15 06:17:35;;;;;;;71.43;40.35;;;10.50;91.30;;;;;;4988332;28;20046;-71
2021/12/15 06:20:00;;;;;;;68.80;38.78;;;10.50;91.20;;;;;;4989477;28;20537;-69
2021/12/15 06:22:27;;;;;;;78.25;41.22;;;10.50;91.20;;;;;;4989520;28;20030;-67
2021/12/15 06:24:55;;;;;;;77.18;41.22;;;10.50;91.20;;;;;;4987737;28;20125;-71
2021/12/15 06:27:22;;;;;;;71.20;41.00;;;10.50;91.20;;;;;;4989667;28;20053;-71
2021/12/15 06:29:49;;;;;;;72.82;40.08;;;10.40;91.30;;;;;;4988119;28;20030;-70
2021/12/15 06:32:16;;;;;;;72.47;39.90;;;10.40;91.30;;;;;;4988881;28;20049;-70
2021/12/15 06:34:43;;;;;;;65.47;36.65;;;10.40;91.30;;;;;;4989374;28;20501;-70
2021/12/15 06:37:08;;;;;;;69.55;38.38;;;10.40;91.30;;;;;;4989712;28;20022;-70
2021/12/15 06:39:35;;;;;;;74.13;40.50;;;10.50;91.40;;;;;;4988319;28;20041;-70
2021/12/15 06:42:01;;;;;;;76.82;42.17;;;10.50;91.30;;;;;;4989244;28;20073;-70
2021/12/15 06:44:27;;;;;;;65.72;38.13;;;10.50;91.30;;;;;;4989066;28;20392;-70
2021/12/15 07:00:48;;;;;;;65.85;37.58;;;10.50;91.30;;;;;;5012466;28;20030;-67
2021/12/15 07:03:16;;;;;;;76.07;40.70;;;10.50;91.30;;;;;;5012336;28;20036;-67
2021/12/15 07:05:42;;;;;;;67.20;38.95;;;10.50;91.30;;;;;;5011369;28;20069;-67
2021/12/15 07:08:11;;;;;;;70.65;37.92;;;10.50;91.30;;;;;;5013207;28;20088;-67
2021/12/15 07:10:41;;;;;;;75.25;39.72;;;10.60;91.30;;;;;;4998671;28;20129;-67
2021/12/15 07:13:07;;;;;;;77.60;40.72;;;10.60;91.30;;;;;;4992750;28;20046;-67
2021/12/15 07:15:34;;;;;;;73.90;41.75;;;10.50;91.30;;;;;;4990755;28;20482;-67
2021/12/15 07:18:04;;;;;;;73.00;40.58;;;10.50;91.30;;;;;;4992953;28;20026;-67
2021/12/15 07:20:41;;;;;;;68.40;38.10;;;10.50;91.30;;;;;;4975522;28;20082;-67
2021/12/15 07:23:14;;;;;;;66.50;37.15;;;10.50;91.30;;;;;;4992913;28;20466;-67
2021/12/15 07:25:40;;;;;;;;;;;10.60;91.40;;;;;;4983516;28;20041;-67
2021/12/15 07:28:06;;;;;;;74.65;39.33;;;10.60;91.30;;;;;;4991395;28;19913;-66
2021/12/15 07:30:35;;;;;;;68.55;38.15;;;10.60;91.30;;;;;;4992397;28;20034;-66
2021/12/15 07:33:01;;;;;;;66.90;35.83;;;10.60;91.40;;;;;;4991188;28;20571;-67
2021/12/15 07:35:28;;;;;;;70.38;38.55;;;10.50;91.40;;;;;;4992063;28;20030;-67
2021/12/15 07:37:54;;;;;;;77.35;38.08;;;10.60;91.40;;;;;;4991567;28;20033;-67
2021/12/15 07:40:22;;;;;;;73.60;37.65;;;10.60;91.40;;;;;;4991127;28;20397;-67
2021/12/15 07:43:06;;;;;;;72.63;38.17;;;10.60;91.40;;;;;;4991146;28;20081;-67
2021/12/15 07:45:36;;;;;;;74.45;38.03;;;10.60;91.40;;;;;;4972252;28;20455;-67
2021/12/15 07:48:04;;;;;;;77.88;37.90;;;10.60;91.40;;;;;;4972942;28;20076;-67
2021/12/15 07:50:32;;;;;;;75.93;37.33;;;10.50;91.40;;;;;;4971677;28;20595;-67
2021/12/15 07:52:58;;;;;;;75.78;36.30;;;10.50;91.50;;;;;;4983511;28;20054;-67
2021/12/15 07:55:25;;;;;;;83.15;39.17;;;10.50;91.40;;;;;;4991546;28;20509;-67
2021/12/15 07:57:52;;;;;;;74.60;37.13;;;10.60;91.50;;;;;;4988519;28;20030;-67
2021/12/15 08:00:19;;;;;;;75.72;37.75;;;10.60;91.50;;;;;;4991976;28;20433;-67
2021/12/15 08:02:46;;;;;;;80.97;38.03;;;10.60;91.50;;;;;;5002242;28;20113;-67
2021/12/15 08:05:13;;;;;;;76.70;35.80;;;10.60;91.50;;;;;;4991494;28;20027;-67
2021/12/15 08:07:38;;;;;;;78.97;36.88;;;10.60;91.50;;;;;;4973840;28;20030;-67
2021/12/15 08:10:08;;;;;;;82.55;38.60;;;10.60;91.50;;;;;;4990857;28;20172;-67
2021/12/15 08:12:34;;;;;;;75.72;35.70;;;10.60;91.60;;;;;;4990291;28;20058;-67
2021/12/15 08:15:00;;;;;;;87.72;37.63;;;10.60;91.60;;;;;;4991224;28;20639;-67
2021/12/15 08:17:26;;;;;;;86.78;38.67;;;10.60;91.60;;;;;;4991118;28;20027;-68
2021/12/15 08:19:53;;;;;;;86.13;39.63;;;10.60;91.60;;;;;;4991756;28;20097;-68
2021/12/15 08:22:18;;;;;;;88.07;38.75;;;10.60;91.60;;;;;;4991644;28;20031;-68
2021/12/15 08:24:44;;;;;;;79.07;36.70;;;10.60;91.60;;;;;;4991043;28;20038;-67
2021/12/15 08:27:09;;;;;;;82.20;36.80;;;10.60;91.60;;;;;;4991753;28;20101;-68
2021/12/15 08:29:35;;;;;;;84.53;37.78;;;10.60;91.60;;;;;;4992127;28;20077;-68
2021/12/15 08:32:01;;;;;;;82.60;37.35;;;10.60;91.70;;;;;;4989060;28;20035;-68
2021/12/15 08:34:27;;;;;;;79.55;37.83;;;10.60;91.70;;;;;;4990125;28;20030;-67
2021/12/15 08:36:54;;;;;;;90.70;40.67;;;10.60;91.70;;;;;;4989607;28;20019;-67
2021/12/15 08:39:20;;;;;;;87.63;39.85;;;10.60;91.70;;;;;;5000859;28;20026;-68
2021/12/15 08:41:46;;;;;;;92.60;42.45;;;10.60;91.70;;;;;;4990755;28;20029;-68
2021/12/15 08:44:13;;;;;;;93.90;38.67;;;10.60;91.70;;;;;;4989750;28;20022;-67
2021/12/15 08:46:42;;;;;;;84.32;35.42;;;10.60;91.80;;;;;;4991394;28;20417;-68
2021/12/15 08:49:16;;;;;;;95.20;40.35;;;10.60;91.80;;;;;;4995999;28;20034;-68
2021/12/15 08:51:44;;;;;;;85.57;38.28;;;10.60;91.80;;;;;;4991685;28;20378;-68
2021/12/15 08:54:14;;;;;;;93.20;40.97;;;10.60;91.80;;;;;;4990213;28;20053;-70
2021/12/15 08:56:41;;;;;;;86.65;40.67;;;10.60;91.80;;;;;;4999719;28;20026;-70
2021/12/15 08:59:07;;;;;;;86.07;40.03;;;10.60;91.70;;;;;;4996546;28;20031;-69
2021/12/15 09:01:33;;;;;;;102.57;43.00;;;10.60;91.70;;;;;;4989967;28;20403;-70
2021/12/15 09:03:59;;;;;;;99.93;42.35;;;10.60;91.70;;;;;;4989766;28;20027;-70
2021/12/15 09:06:25;;;;;;;95.53;41.83;;;10.60;91.70;;;;;;4991243;28;20507;-70
2021/12/15 09:08:51;;;;;;;91.63;41.33;;;10.60;91.80;;;;;;4990357;28;20026;-70
2021/12/15 09:11:21;;;;;;;102.10;42.85;;;10.60;91.80;;;;;;4990309;28;20073;-70
2021/12/15 09:13:52;;;;;;;92.97;40.90;;;10.60;91.80;;;;;;4994381;28;20096;-70
2021/12/15 09:16:18;;;;;;;93.90;42.28;;;10.60;91.80;;;;;;5000424;28;20026;-69
2021/12/15 09:18:46;;;;;;;91.75;41.13;;;10.70;91.80;;;;;;4984883;28;20416;-70
2021/12/15 09:21:15;;;;;;;95.40;41.90;;;10.70;91.80;;;;;;4982972;28;20508;-70
2021/12/15 09:23:43;;;;;;;96.13;42.80;;;10.70;91.80;;;;;;4982209;28;20023;-70
2021/12/15 09:26:10;;;;;;;103.88;42.83;;;10.70;91.80;;;;;;4985646;28;20464;-70
2021/12/15 09:28:37;;;;;;;101.72;43.70;;;10.70;91.80;;;;;;4987649;28;20018;-70
2021/12/15 09:31:05;;;;;;;99.43;43.10;;;10.70;91.80;;;;;;4987594;28;20042;-70
2021/12/15 09:33:33;;;;;;;94.13;42.97;;;10.70;91.80;;;;;;4987844;28;20069;-70
2021/12/15 09:36:01;;;;;;;96.47;42.30;;;10.70;91.80;;;;;;5004769;28;20747;-70
2021/12/15 09:38:27;;;;;;;92.25;42.90;;;10.70;91.80;;;;;;5009407;28;20053;-69
2021/12/15 09:40:57;;;;;;;88.20;40.42;;;10.70;91.80;;;;;;5001563;28;20065;-70
2021/12/15 09:43:27;;;;;;;99.05;43.78;;;10.70;91.90;;;;;;4988557;28;20450;-69
2021/12/15 09:45:55;;;;;;;91.22;40.72;;;10.70;91.90;;;;;;4963070;28;20118;-69
2021/12/15 10:02:31;;;;;;;94.53;41.83;;;10.80;91.90;;;;;;4994143;28;20033;-68
2021/12/15 10:21:35;;;;;;;89.50;41.38;;;10.80;91.80;;;;;;4979032;28;20035;-67
2021/12/15 10:24:04;;;;;;;96.15;43.83;;;10.80;91.80;;;;;;4986488;28;20401;-68
2021/12/15 10:26:30;;;;;;;90.65;41.20;;;10.80;91.80;;;;;;4987004;28;20513;-68
2021/12/15 10:28:55;;;;;;;83.78;40.50;;;10.80;91.80;;;;;;4984798;28;20404;-67
2021/12/15 10:31:24;;;;;;;89.88;41.58;;;10.90;91.80;;;;;;4985993;28;20038;-68
2021/12/15 10:33:58;;;;;;;93.57;42.13;;;10.90;91.80;;;;;;4986437;28;20045;-67
2021/12/15 10:36:33;;;;;;;83.05;41.92;;;10.90;91.70;;;;;;4987014;28;20402;-68
2021/12/15 10:39:03;;;;;;;87.78;42.75;;;10.90;91.70;;;;;;4988352;28;20030;-67
2021/12/15 10:41:32;;;;;;;86.88;41.65;;;10.90;91.70;;;;;;4995367;28;20026;-68
2021/12/15 10:44:14;;;;;;;87.97;43.03;;;10.90;91.70;;;;;;4990182;28;20343;-67
2021/12/15 10:46:55;;;;;;;82.63;41.97;;;10.90;91.60;;;;;;4986352;28;20034;-67
2021/12/15 10:49:30;;;;;;;76.57;40.40;;;10.90;91.60;;;;;;4988227;28;20548;-68
2021/12/15 10:52:00;;;;;;;78.00;41.95;;;10.90;91.60;;;;;;4987694;28;20327;-68
2021/12/15 10:54:48;;;;;;;79.28;43.03;;;11.00;91.60;;;;;;4986195;28;20399;-68
2021/12/15 10:57:30;;;;;;;74.13;40.22;;;11.00;91.60;;;;;;4985308;28;20050;-68
2021/12/15 10:59:56;;;;;;;79.43;41.55;;;11.00;91.60;;;;;;4986392;28;20027;-68
2021/12/15 11:02:28;;;;;;;74.18;41.47;;;11.00;91.50;;;;;;4987320;28;20209;-68
2021/12/15 11:05:01;;;;;;;70.07;39.05;;;11.00;91.50;;;;;;4991579;28;20122;-67
2021/12/15 11:07:36;;;;;;;72.28;40.83;;;11.10;91.50;;;;;;4987113;28;20549;-68
2021/12/15 11:10:11;;;;;;;70.72;39.33;;;11.10;91.50;;;;;;4988259;28;20081;-68
2021/12/15 11:13:00;;;;;;;71.95;40.80;;;11.10;91.40;;;;;;4986977;28;20101;-67
2021/12/15 11:15:30;;;;;;;74.30;41.15;;;11.10;91.40;;;;;;4984092;28;20026;-68
2021/12/15 11:18:12;;;;;;;66.65;39.40;;;11.10;91.40;;;;;;4986462;28;20050;-68
2021/12/15 11:20:40;;;;;;;66.88;38.95;;;11.10;91.40;;;;;;4986822;28;20029;-68
2021/12/15 11:23:15;;;;;;;69.38;39.20;;;11.20;91.40;;;;;;4986457;28;20046;-68
2021/12/15 11:25:49;;;;;;;68.55;40.13;;;11.20;91.30;;;;;;4996192;28;20022;-67
2021/12/15 11:28:20;;;;;;;69.50;41.47;;;11.20;91.30;;;;;;4988601;28;20530;-68
2021/12/15 11:31:21;;;;;;;68.95;40.88;;;11.20;91.40;;;;;;4986055;28;20403;-67
2021/12/15 11:33:57;;;;;;;65.15;39.03;;;11.20;91.20;;;;;;4975138;28;20042;-68
2021/12/15 11:36:27;;;;;;;74.60;47.45;;;11.30;91.20;;;;;;4984619;28;20034;-68
2021/12/15 11:39:10;;;;;;;70.43;46.90;;;11.30;91.20;;;;;;4987245;28;20033;-68
2021/12/15 11:41:43;;;;;;;74.15;46.53;;;11.30;91.10;;;;;;4987017;28;20015;-68
2021/12/15 11:44:12;;;;;;;74.25;45.63;;;11.30;91.10;;;;;;4988581;28;20037;-68
2021/12/15 11:46:43;;;;;;;65.65;42.97;;;11.30;91.10;;;;;;4989178;28;20049;-68
2021/12/15 11:49:17;;;;;;;63.15;39.13;;;11.30;91.10;;;;;;4990923;28;20401;-68
2021/12/15 11:51:46;;;;;;;61.40;38.75;;;11.30;91.10;;;;;;4989840;28;20033;-68
2021/12/15 11:54:23;;;;;;;55.17;36.88;;;11.30;91.00;;;;;;4988455;28;20073;-68
2021/12/15 11:57:05;;;;;;;61.97;38.70;;;11.30;91.00;;;;;;4991650;28;20466;-68
2021/12/15 11:59:37;;;;;;;64.43;40.00;;;11.30;91.00;;;;;;4983220;28;20026;-68
2021/12/15 12:02:24;;;;;;;57.50;36.53;;;11.30;91.00;;;;;;4986648;28;20676;-68
2021/12/15 12:04:56;;;;;;;60.88;38.45;;;11.30;91.00;;;;;;4990583;28;20042;-68
2021/12/15 12:07:33;;;;;;;59.40;38.08;;;11.30;90.90;;;;;;4990479;28;20401;-68
2021/12/15 12:10:09;;;;;;;56.50;36.85;;;11.30;90.90;;;;;;4985977;28;20400;-68
2021/12/15 12:12:41;;;;;;;58.08;38.03;;;11.30;90.90;;;;;;4990270;28;20050;-67
2021/12/15 12:15:13;;;;;;;57.37;36.10;;;11.30;90.90;;;;;;4989780;28;20327;-68
2021/12/15 12:17:42;;;;;;;58.92;35.92;;;11.30;90.90;;;;;;4989294;28;20281;-67
2021/12/15 12:20:17;;;;;;;56.80;37.67;;;11.30;90.90;;;;;;4987848;28;20492;-67
2021/12/15 12:22:46;;;;;;;57.17;37.65;;;11.30;90.80;;;;;;4984622;28;20030;-67
2021/12/15 12:25:24;;;;;;;52.67;35.90;;;11.30;90.80;;;;;;4989116;28;20377;-68
2021/12/15 12:27:51;;;;;;;53.95;36.22;;;11.30;90.80;;;;;;4991207;28;20103;-68
2021/12/15 12:30:22;;;;;;;51.80;35.22;;;11.30;90.80;;;;;;4990172;28;20381;-68
2021/12/15 12:32:49;;;;;;;52.00;36.85;;;11.30;90.80;;;;;;4989618;28;20034;-68
2021/12/15 12:35:24;;;;;;;54.97;36.30;;;11.30;90.80;;;;;;4990221;28;20121;-68
2021/12/15 12:37:52;;;;;;;52.25;37.33;;;11.30;90.80;;;;;;4990834;28;20385;-68
2021/12/15 12:40:25;;;;;;;46.22;33.97;;;11.30;90.80;;;;;;4987687;28;20026;-68
2021/12/15 12:42:51;;;;;;;53.55;35.70;;;11.40;90.80;;;;;;4985831;28;20042;-68
2021/12/15 12:45:18;;;;;;;46.47;35.33;;;11.40;90.80;;;;;;4988398;28;20089;-68
2021/12/15 12:59:47;;;;;;;40.55;29.45;;;11.60;90.40;;;;;;4990041;28;20037;-68
2021/12/15 13:02:46;;;;;;;40.45;30.08;;;11.60;90.50;;;;;;4989026;28;20026;-68
2021/12/15 13:05:37;;;;;;;44.10;32.65;;;11.70;90.40;;;;;;4982714;28;20049;-68
2021/12/15 13:08:14;;;;;;;40.65;29.60;;;11.70;90.40;;;;;;4990314;28;20047;-68
2021/12/15 13:10:58;;;;;;;45.33;32.70;;;11.70;90.40;;;;;;4988914;28;20110;-68
2021/12/15 13:13:28;;;;;;;37.92;28.58;;;11.70;90.30;;;;;;4987506;28;20500;-68
2021/12/15 13:16:05;;;;;;;41.08;29.42;;;11.70;90.30;;;;;;4996523;28;20026;-68
2021/12/15 13:18:55;;;;;;;40.22;28.92;;;11.70;90.20;;;;;;4989401;28;20481;-68
2021/12/15 13:21:40;;;;;;;36.17;28.15;;;11.80;90.00;;;;;;4989249;28;20025;-68
2021/12/15 13:28:38;;;;;;;35.08;25.95;;;11.80;89.80;;;;;;4983789;28;20038;-68
2021/12/15 13:30:01;;;;;;;31.63;24.40;;;11.80;89.30;;;;;;4993449;28;20113;-68
2021/12/15 13:32:30;;;;;;;34.67;24.52;;;11.80;89.10;;;;;;4972240;28;20038;-67
2021/12/15 13:34:56;;;;;;;29.70;23.85;;;11.90;89.20;;;;;;4987557;28;20022;-67
2021/12/15 13:37:50;;;;;;;32.33;23.60;;;11.90;89.20;;;;;;4978044;28;20035;-67
2021/12/15 13:40:50;;;;;;;29.10;22.50;;;11.80;88.90;;;;;;4983611;28;20042;-67
2021/12/15 13:43:37;;;;;;;26.83;21.48;;;11.90;88.70;;;;;;4989023;28;20113;-67
2021/12/15 13:46:05;;;;;;;26.13;19.77;;;11.80;88.70;;;;;;4988445;28;20109;-67
2021/12/15 13:48:53;;;;;;;26.88;20.48;;;11.80;88.30;;;;;;4989612;28;20019;-67
2021/12/15 13:51:57;;;;;;;25.10;18.77;;;11.80;88.20;;;;;;4989178;28;20034;-67
2021/12/15 13:54:22;;;;;;;29.50;20.05;;;11.80;88.10;;;;;;4988406;28;20026;-68
2021/12/15 13:56:50;;;;;;;21.70;18.02;;;11.80;88.00;;;;;;4987961;28;20022;-69
2021/12/15 13:59:36;;;;;;;24.15;18.42;;;11.70;88.00;;;;;;4989291;28;20018;-68
2021/12/15 14:02:19;;;;;;;24.00;17.30;;;11.70;88.10;;;;;;4988346;28;20473;-68
2021/12/15 14:04:55;;;;;;;23.10;17.38;;;11.70;88.00;;;;;;4988223;28;20026;-68
2021/12/15 14:07:44;;;;;;;23.80;16.67;;;11.70;88.00;;;;;;4989087;28;20045;-69
2021/12/15 14:10:10;;;;;;;23.08;17.42;;;11.70;88.00;;;;;;4988898;28;20065;-68
2021/12/15 14:12:48;;;;;;;22.27;16.42;;;11.70;87.60;;;;;;4988839;28;20046;-69
2021/12/15 14:15:34;;;;;;;19.35;15.95;;;11.70;87.60;;;;;;4988651;28;20165;-69